Time;durP1;ratioP1;P1;durP2;ratioP2;P2;SDS_P1;SDS_P2;PMS_P1;PMS_P2;Temp;Humidity;BMP_temperature;BMP_pressure;BME280_temperature;BME280_humidity;BME280_pressure;Samples;Min_cycle;Max_cycle;Signal;HPM_P1;HPM_P2
2023/09/08 00:00:24;;;;;;;6.90;3.90;;;;;;;17.59;88.98;101346.63;5933859;29;20394;-68
2023/09/08 00:03:21;;;;;;;9.43;4.37;;;;;;;17.62;88.99;101354.31;5931383;29;20111;-69
2023/09/08 00:06:16;;;;;;;7.80;3.72;;;;;;;17.57;89.15;101348.66;5932437;29;20755;-68
2023/09/08 00:09:12;;;;;;;8.03;4.13;;;;;;;17.58;89.82;101349.50;5935579;29;20067;-68
2023/09/08 00:12:07;;;;;;;10.40;4.10;;;;;;;17.55;88.46;101339.97;5943182;29;20020;-69
2023/09/08 00:15:03;;;;;;;7.50;4.03;;;;;;;17.57;88.79;101351.34;5939466;29;20047;-69
2023/09/08 00:17:59;;;;;;;6.88;4.07;;;;;;;17.57;89.12;101350.50;5945230;29;20284;-69
2023/09/08 00:20:54;;;;;;;10.10;4.68;;;;;;;17.68;88.83;101367.03;5936196;29;20032;-69
2023/09/08 00:23:49;;;;;;;7.77;4.07;;;;;;;17.52;89.40;101359.03;5934838;29;20626;-68
2023/09/08 00:26:45;;;;;;;7.80;4.35;;;;;;;17.34;90.50;101349.59;5936105;29;20112;-69
2023/09/08 00:29:40;;;;;;;7.05;4.22;;;;;;;17.39;90.67;101358.78;5936122;29;20523;-69
2023/09/08 00:32:36;;;;;;;8.13;4.03;;;;;;;17.20;91.24;101338.56;5936217;29;20066;-69
2023/09/08 00:35:31;;;;;;;8.65;4.20;;;;;;;17.23;91.61;101353.44;5934812;29;20276;-67
2023/09/08 00:38:26;;;;;;;8.43;4.77;;;;;;;17.22;92.37;101354.47;5936061;29;20032;-68
2023/09/08 00:41:23;;;;;;;8.82;4.30;;;;;;;17.08;92.32;101334.59;5935991;29;20107;-67
2023/09/08 00:44:18;;;;;;;8.13;3.92;;;;;;;17.11;92.44;101336.09;5934789;29;20040;-67
2023/09/08 00:47:14;;;;;;;8.20;4.17;;;;;;;17.10;92.82;101342.44;5935994;29;20471;-67
2023/09/08 00:50:09;;;;;;;6.83;4.20;;;;;;;17.04;92.94;101337.81;5941968;29;20055;-67
2023/09/08 00:53:06;;;;;;;8.85;4.78;;;;;;;17.01;93.02;101347.00;5935865;29;20040;-69
2023/09/08 00:56:02;;;;;;;6.75;4.28;;;;;;;16.93;93.67;101336.31;5935692;29;20028;-68
2023/09/08 00:58:57;;;;;;;7.03;3.92;;;;;;;16.90;94.00;101343.88;5935355;29;20460;-69
2023/09/08 01:01:53;;;;;;;10.80;4.38;;;;;;;16.92;94.44;101344.53;5935381;29;20028;-68
2023/09/08 01:04:49;;;;;;;14.15;4.80;;;;;;;16.86;95.01;101343.38;5934138;29;20028;-68
2023/09/08 01:07:45;;;;;;;6.85;4.10;;;;;;;16.81;95.08;101326.13;5938689;29;20403;-68
2023/09/08 01:10:41;;;;;;;11.73;4.38;;;;;;;16.85;95.31;101341.69;5935324;29;20095;-67
2023/09/08 01:13:37;;;;;;;10.13;4.53;;;;;;;16.83;95.41;101345.53;5934038;29;20483;-69
2023/09/08 01:16:32;;;;;;;10.53;4.30;;;;;;;16.86;95.37;101345.19;5935257;29;20090;-67
2023/09/08 01:19:27;;;;;;;8.10;4.17;;;;;;;16.71;95.33;101330.84;5934024;29;20064;-68
2023/09/08 01:22:50;;;;;;;12.03;5.90;;;;;;;16.81;95.86;101352.91;5935246;29;20060;-69
2023/09/08 01:25:53;;;;;;;12.13;5.13;;;;;;;16.60;96.84;101340.88;5942960;29;20578;-68
2023/09/08 01:28:49;;;;;;;7.55;4.28;;;;;;;16.66;96.94;101348.25;5933317;29;20040;-68
2023/09/08 01:31:45;;;;;;;8.82;4.43;;;;;;;16.61;96.92;101331.84;5934646;29;20036;-69
2023/09/08 01:34:40;;;;;;;9.60;4.57;;;;;;;16.71;96.56;101334.38;5929663;29;20127;-69
2023/09/08 01:37:39;;;;;;;8.35;4.63;;;;;;;16.62;97.37;101340.75;5934902;29;20044;-68
2023/09/08 01:40:35;;;;;;;9.07;4.85;;;;;;;16.66;97.85;101345.56;5928980;29;20118;-68
2023/09/08 01:43:30;;;;;;;11.68;4.93;;;;;;;16.44;98.18;101319.47;5933396;29;20067;-68
2023/09/08 01:46:25;;;;;;;8.02;4.45;;;;;;;16.47;97.65;101321.81;5934011;29;20451;-68
2023/09/08 01:49:21;;;;;;;9.70;4.70;;;;;;;16.47;98.46;101326.34;5934617;29;20048;-68
2023/09/08 01:52:16;;;;;;;9.27;4.50;;;;;;;16.49;98.56;101335.03;5934301;29;20032;-69
2023/09/08 01:55:12;;;;;;;12.63;4.80;;;;;;;16.40;98.65;101312.78;5933077;29;20036;-69
2023/09/08 01:58:07;;;;;;;10.60;4.68;;;;;;;16.41;99.58;101325.19;5934381;29;20035;-68
2023/09/08 02:01:05;;;;;;;8.60;4.60;;;;;;;16.22;99.91;101309.47;5934055;29;20111;-68
2023/09/08 02:04:00;;;;;;;7.82;4.70;;;;;;;16.22;100.00;101306.78;5933072;29;20087;-68
2023/09/08 02:06:56;;;;;;;7.63;4.63;;;;;;;16.25;100.00;101322.47;5940011;29;20047;-68
2023/09/08 02:09:51;;;;;;;8.80;4.47;;;;;;;16.28;100.00;101315.97;5933566;29;20467;-68
2023/09/08 02:12:46;;;;;;;7.07;4.13;;;;;;;16.37;100.00;101326.50;5933861;29;20032;-68
2023/09/08 02:15:41;;;;;;;8.37;4.57;;;;;;;16.22;100.00;101297.91;5945267;29;20067;-69
2023/09/08 02:18:37;;;;;;;8.00;5.00;;;;;;;16.09;100.00;101314.47;5934022;29;20032;-68
2023/09/08 02:21:32;;;;;;;8.93;5.23;;;;;;;15.93;100.00;101298.41;5933842;29;20044;-68
2023/09/08 02:24:27;;;;;;;14.67;5.43;;;;;;;15.81;100.00;101299.75;5940703;29;20439;-69
2023/09/08 02:27:23;;;;;;;10.03;4.90;;;;;;;15.78;100.00;101292.88;5935736;29;20063;-68
2023/09/08 02:30:18;;;;;;;8.37;5.17;;;;;;;15.87;100.00;101304.44;5933081;29;20648;-68
2023/09/08 02:33:13;;;;;;;9.67;4.93;;;;;;;15.92;100.00;101302.09;5932764;29;20039;-68
2023/09/08 02:36:09;;;;;;;7.70;4.27;;;;;;;16.04;100.00;101296.25;5933744;29;20032;-68
2023/09/08 02:39:04;;;;;;;8.57;5.27;;;;;;;16.10;100.00;101300.09;5942600;29;20111;-68
2023/09/08 02:41:59;;;;;;;9.80;4.47;;;;;;;16.25;100.00;101314.44;5936239;29;20099;-68
2023/09/08 02:44:55;;;;;;;6.70;4.23;;;;;;;16.11;100.00;101306.28;5932239;29;20115;-68
2023/09/08 02:47:50;;;;;;;7.70;4.40;;;;;;;15.91;100.00;101300.41;5933480;29;20040;-68
2023/09/08 02:50:45;;;;;;;7.47;4.80;;;;;;;15.65;100.00;101283.69;5935274;29;20028;-68
2023/09/08 02:53:41;;;;;;;7.70;4.57;;;;;;;15.62;100.00;101281.31;5931791;29;20043;-68
2023/09/08 02:56:36;;;;;;;11.45;4.72;;;;;;;15.72;100.00;101300.72;5941758;29;20280;-68
2023/09/08 02:59:31;;;;;;;7.50;4.50;;;;;;;15.65;100.00;101297.88;5933025;29;20034;-68
2023/09/08 03:02:27;;;;;;;8.05;4.78;;;;;;;15.69;100.00;101295.69;5933253;29;20032;-68
2023/09/08 03:05:22;;;;;;;8.07;4.77;;;;;;;15.57;100.00;101292.53;5927305;29;20036;-68
2023/09/08 03:08:17;;;;;;;10.40;4.80;;;;;;;15.72;100.00;101295.38;5932946;29;20489;-68
2023/09/08 03:11:13;;;;;;;9.10;4.87;;;;;;;15.96;100.00;101316.78;5933101;29;20399;-68
2023/09/08 03:14:08;;;;;;;6.67;4.23;;;;;;;15.70;100.00;101292.88;5937136;29;20362;-68
2023/09/08 03:17:03;;;;;;;11.57;4.40;;;;;;;15.42;100.00;101288.75;5939345;29;20108;-68
2023/09/08 03:19:59;;;;;;;8.77;4.23;;;;;;;15.97;100.00;101307.78;5932874;29;20538;-68
2023/09/08 03:22:54;;;;;;;12.13;5.50;;;;;;;15.53;100.00;101295.66;5932297;29;20032;-67
2023/09/08 03:25:49;;;;;;;7.85;4.82;;;;;;;15.17;100.00;101306.56;5932093;29;20028;-68
2023/09/08 03:28:45;;;;;;;8.73;4.53;;;;;;;14.85;100.00;101290.38;5932676;29;20131;-68
2023/09/08 03:31:40;;;;;;;8.30;4.63;;;;;;;15.06;100.00;101319.34;5932955;28;20066;-68
2023/09/08 03:34:39;;;;;;;8.15;4.60;;;;;;;14.72;100.00;101317.53;5932562;28;20040;-67
2023/09/08 03:37:35;;;;;;;12.32;5.90;;;;;;;14.45;100.00;101295.50;5943220;29;20046;-67
2023/09/08 03:40:31;;;;;;;10.55;5.18;;;;;;;14.29;100.00;101310.34;5932429;29;20203;-67
2023/09/08 03:43:26;;;;;;;9.77;5.00;;;;;;;14.06;100.00;101301.16;5933968;29;20032;-67
2023/09/08 03:46:24;;;;;;;9.13;5.20;;;;;;;13.91;100.00;101294.72;5937085;29;20040;-67
2023/09/08 03:49:20;;;;;;;9.05;5.72;;;;;;;14.07;100.00;101316.19;5936158;29;20036;-68
2023/09/08 03:52:15;;;;;;;8.68;4.68;;;;;;;14.17;100.00;101316.94;5936764;29;20043;-68
2023/09/08 03:55:11;;;;;;;8.73;5.13;;;;;;;14.01;100.00;101316.78;5933111;29;20036;-67
2023/09/08 03:58:06;;;;;;;9.90;4.60;;;;;;;13.72;100.00;101324.19;5937662;28;20039;-67
2023/09/08 04:01:01;;;;;;;8.53;5.00;;;;;;;13.52;100.00;101298.66;5893852;29;20091;-67
2023/09/08 04:03:57;;;;;;;9.00;5.33;;;;;;;14.02;100.00;101315.78;5931883;29;20292;-67
2023/09/08 04:06:52;;;;;;;12.00;5.38;;;;;;;14.32;100.00;101319.09;5936572;29;20036;-67
2023/09/08 04:09:47;;;;;;;13.10;6.03;;;;;;;14.30;100.00;101300.50;5936659;29;20451;-67
2023/09/08 04:12:44;;;;;;;8.53;4.83;;;;;;;14.48;100.00;101311.19;5936324;29;20264;-67
2023/09/08 04:15:39;;;;;;;11.88;5.63;;;;;;;14.40;100.00;101297.78;5947281;29;20032;-67
2023/09/08 04:18:34;;;;;;;11.30;5.90;;;;;;;14.50;100.00;101312.72;5936323;29;20039;-67
2023/09/08 04:21:30;;;;;;;16.27;6.43;;;;;;;14.44;100.00;101291.13;5946928;29;20035;-67
2023/09/08 04:24:25;;;;;;;14.37;5.87;;;;;;;14.49;100.00;101307.50;5937175;29;20592;-67
2023/09/08 04:27:21;;;;;;;10.18;6.07;;;;;;;14.34;100.00;101311.75;5940529;29;20455;-67
2023/09/08 04:30:17;;;;;;;10.23;5.50;;;;;;;14.49;100.00;101313.69;5940314;29;20044;-67
2023/09/08 04:33:12;;;;;;;10.25;5.63;;;;;;;14.58;100.00;101318.09;5933594;29;20024;-67
2023/09/08 04:36:08;;;;;;;10.40;5.50;;;;;;;14.60;100.00;101302.75;5940502;29;20040;-67
2023/09/08 04:39:03;;;;;;;12.70;6.40;;;;;;;14.67;100.00;101306.50;5933047;29;20035;-67
2023/09/08 04:41:59;;;;;;;11.73;6.40;;;;;;;14.72;100.00;101314.84;5936117;29;20277;-68
2023/09/08 04:44:54;;;;;;;9.05;5.47;;;;;;;14.70;100.00;101298.13;5934632;29;20461;-68
2023/09/08 04:47:50;;;;;;;11.03;5.63;;;;;;;14.73;100.00;101286.34;5935744;29;20044;-68
2023/09/08 04:50:45;;;;;;;10.98;6.15;;;;;;;14.62;100.00;101283.94;5935422;29;20040;-68
2023/09/08 04:53:41;;;;;;;10.93;5.20;;;;;;;14.60;100.00;101294.75;5937654;29;20056;-68
2023/09/08 04:56:36;;;;;;;8.37;5.57;;;;;;;14.50;100.00;101287.84;5933887;29;20403;-68
2023/09/08 04:59:32;;;;;;;9.63;5.30;;;;;;;14.50;100.00;101285.19;5935037;29;20119;-68
2023/09/08 05:02:27;;;;;;;11.15;5.93;;;;;;;14.66;100.00;101303.97;5938063;29;20050;-68
2023/09/08 05:05:23;;;;;;;10.27;5.90;;;;;;;14.77;100.00;101309.88;5934054;29;20036;-68
2023/09/08 05:08:18;;;;;;;9.47;6.13;;;;;;;14.82;100.00;101312.06;5946870;29;20103;-68
2023/09/08 05:11:13;;;;;;;9.40;6.00;;;;;;;14.80;100.00;101308.72;5934743;29;20078;-68
2023/09/08 05:14:09;;;;;;;11.53;5.63;;;;;;;14.73;100.00;101307.69;5936240;29;20535;-68
2023/09/08 05:17:04;;;;;;;13.07;6.90;;;;;;;14.75;100.00;101279.00;5935052;29;20268;-68
2023/09/08 05:20:00;;;;;;;10.48;5.93;;;;;;;14.72;100.00;101295.31;5935298;29;20268;-68
2023/09/08 05:22:55;;;;;;;13.10;7.17;;;;;;;14.68;100.00;101294.78;5934825;29;20031;-68
2023/09/08 05:25:50;;;;;;;12.23;6.50;;;;;;;14.89;100.00;101313.94;5934452;28;20028;-68
2023/09/08 05:28:45;;;;;;;9.43;6.33;;;;;;;15.20;100.00;101286.69;5938336;29;20111;-69
2023/09/08 05:31:41;;;;;;;12.87;5.73;;;;;;;15.68;100.00;101302.88;5934730;29;20435;-67
2023/09/08 05:34:36;;;;;;;14.83;6.90;;;;;;;16.11;100.00;101304.44;5934376;29;20292;-67
2023/09/08 05:37:31;;;;;;;12.40;6.53;;;;;;;16.40;100.00;101301.22;5934934;29;20272;-68
2023/09/08 05:40:27;;;;;;;15.33;6.33;;;;;;;16.70;100.00;101313.09;5934446;29;20064;-68
2023/09/08 05:43:24;;;;;;;15.97;6.80;;;;;;;16.46;100.00;101296.06;5933825;29;20082;-68
2023/09/08 05:46:20;;;;;;;13.55;7.25;;;;;;;17.01;99.25;101296.06;5934350;29;20047;-68
2023/09/08 05:49:15;;;;;;;8.85;5.53;;;;;;;16.54;100.00;101305.94;5934538;29;20036;-68
2023/09/08 05:52:10;;;;;;;13.03;6.63;;;;;;;17.15;99.08;101297.19;5935080;29;20099;-68
2023/09/08 05:55:06;;;;;;;12.43;6.90;;;;;;;16.72;100.00;101311.91;5933749;28;20032;-67
2023/09/08 05:58:02;;;;;;;11.85;6.65;;;;;;;17.25;97.26;101301.38;5934289;29;20107;-68
2023/09/08 06:00:57;;;;;;;17.90;7.13;;;;;;;17.25;99.03;101316.59;5933876;29;20039;-67
2023/09/08 06:03:54;;;;;;;12.27;6.72;;;;;;;17.32;99.84;101298.78;5931575;29;20028;-67
2023/09/08 06:06:49;;;;;;;11.93;6.50;;;;;;;17.17;99.22;101300.56;5944840;29;20035;-68
2023/09/08 06:09:44;;;;;;;10.67;5.83;;;;;;;17.33;97.80;101296.97;5934046;29;20463;-67
2023/09/08 06:12:40;;;;;;;11.97;6.77;;;;;;;17.47;98.19;101298.91;5933479;29;20036;-66
2023/09/08 06:15:35;;;;;;;9.73;6.23;;;;;;;17.48;96.46;101304.06;5932690;29;20758;-67
2023/09/08 06:18:31;;;;;;;14.45;6.75;;;;;;;17.95;92.91;101298.59;5933220;29;20039;-66
2023/09/08 06:21:26;;;;;;;14.43;7.60;;;;;;;17.43;96.76;101298.41;5939332;29;20118;-68
2023/09/08 06:24:22;;;;;;;15.73;7.07;;;;;;;17.53;97.12;101298.19;5944996;29;20032;-67
2023/09/08 06:27:17;;;;;;;11.43;7.53;;;;;;;17.56;96.32;101300.53;5933783;29;20052;-68
2023/09/08 06:30:16;;;;;;;15.00;7.50;;;;;;;17.66;95.97;101304.69;5933460;29;20271;-66
2023/09/08 06:33:11;;;;;;;12.15;7.47;;;;;;;17.68;96.16;101305.34;5933026;29;20543;-68
2023/09/08 06:36:06;;;;;;;12.43;7.13;;;;;;;18.17;92.58;101294.22;5933297;29;20043;-69
2023/09/08 06:39:02;;;;;;;16.27;7.47;;;;;;;18.09;94.04;101287.09;5933416;29;20024;-67
2023/09/08 06:41:57;;;;;;;16.05;7.93;;;;;;;18.23;93.34;101309.63;5933446;29;20272;-67
2023/09/08 06:44:53;;;;;;;11.63;6.73;;;;;;;18.49;90.63;101288.59;5932293;29;20115;-67
2023/09/08 06:47:50;;;;;;;13.70;7.00;;;;;;;18.39;90.81;101296.03;5933498;29;20387;-67
2023/09/08 06:50:45;;;;;;;12.98;7.55;;;;;;;18.53;91.10;101284.53;5933143;28;20395;-68
2023/09/08 06:53:43;;;;;;;15.40;7.97;;;;;;;18.89;87.13;101308.78;5932631;29;20043;-68
2023/09/08 06:56:38;;;;;;;12.20;6.47;;;;;;;18.64;89.75;101292.13;5933273;29;20479;-68
2023/09/08 06:59:33;;;;;;;13.40;6.87;;;;;;;18.85;88.46;101311.03;5933021;29;20031;-68
2023/09/08 07:02:29;;;;;;;12.83;6.50;;;;;;;18.78;88.70;101312.78;5932981;29;20064;-66
2023/09/08 07:05:24;;;;;;;11.70;7.30;;;;;;;18.81;88.57;101303.50;5931712;29;20028;-66
2023/09/08 07:08:19;;;;;;;12.97;7.20;;;;;;;18.89;88.09;101304.25;5932910;29;20115;-66
2023/09/08 07:11:14;;;;;;;11.77;6.20;;;;;;;19.09;87.92;101309.91;5932831;29;20409;-67
2023/09/08 07:14:10;;;;;;;13.73;6.27;;;;;;;19.27;86.55;101299.59;5931857;29;20047;-67
2023/09/08 07:17:05;;;;;;;11.57;6.20;;;;;;;19.39;85.50;101302.66;5936549;29;20032;-68
2023/09/08 07:20:01;;;;;;;9.87;6.27;;;;;;;19.52;85.42;101310.88;5937556;28;20043;-67
2023/09/08 07:22:56;;;;;;;14.70;7.45;;;;;;;19.77;83.22;101309.53;5937270;29;20074;-68
2023/09/08 07:25:52;;;;;;;12.23;6.47;;;;;;;19.81;83.59;101300.03;5937287;29;20039;-68
2023/09/08 07:28:48;;;;;;;12.73;6.40;;;;;;;19.99;82.80;101305.81;5937439;29;20032;-68
2023/09/08 07:31:44;;;;;;;9.85;5.47;;;;;;;20.40;81.39;101324.03;5937592;29;20103;-69
2023/09/08 07:34:39;;;;;;;9.50;5.40;;;;;;;20.52;80.19;101309.81;5936561;29;20036;-67
2023/09/08 07:37:34;;;;;;;14.00;6.17;;;;;;;20.60;79.77;101311.53;5937205;29;20036;-67
2023/09/08 07:40:30;;;;;;;10.67;5.63;;;;;;;20.85;78.07;101312.72;5937197;29;20798;-66
2023/09/08 07:43:25;;;;;;;10.07;6.03;;;;;;;20.87;77.46;101315.25;5936682;29;20123;-68
2023/09/08 07:46:21;;;;;;;10.85;6.10;;;;;;;20.78;78.50;101323.47;5937066;29;20086;-67
2023/09/08 07:49:18;;;;;;;12.10;5.77;;;;;;;21.10;76.44;101311.25;5936918;29;20388;-67
2023/09/08 07:52:13;;;;;;;10.85;5.75;;;;;;;21.14;75.61;101317.91;5936964;29;20268;-67
2023/09/08 07:55:09;;;;;;;11.40;6.17;;;;;;;21.47;74.61;101296.44;5936298;29;20502;-68
2023/09/08 07:58:04;;;;;;;9.67;5.30;;;;;;;21.91;72.69;101298.66;5949488;29;20027;-68
2023/09/08 08:01:00;;;;;;;12.93;5.57;;;;;;;21.82;72.80;101299.88;5943064;29;20025;-68
2023/09/08 08:03:55;;;;;;;15.77;5.90;;;;;;;21.93;71.23;101293.91;5937483;29;20024;-67
2023/09/08 08:06:50;;;;;;;7.93;5.00;;;;;;;22.15;70.62;101298.06;5947597;29;20632;-68
2023/09/08 08:09:45;;;;;;;8.43;4.37;;;;;;;22.80;68.86;101293.69;5936585;29;20040;-68
2023/09/08 08:12:41;;;;;;;10.57;5.50;;;;;;;22.80;66.54;101309.91;5936826;29;20276;-68
2023/09/08 08:15:38;;;;;;;7.05;4.55;;;;;;;22.63;67.08;101281.59;5935704;29;20039;-68
2023/09/08 08:18:34;;;;;;;10.10;5.57;;;;;;;22.92;66.31;101303.63;5935213;29;20036;-67
2023/09/08 08:21:29;;;;;;;9.77;5.10;;;;;;;22.83;67.64;101301.38;5936594;29;20033;-68
2023/09/08 08:24:25;;;;;;;9.95;4.90;;;;;;;23.13;66.85;101282.75;5935372;29;20056;-68
2023/09/08 08:27:20;;;;;;;8.93;4.83;;;;;;;23.56;65.41;101284.63;5949234;29;20040;-67
2023/09/08 08:30:15;;;;;;;7.03;4.43;;;;;;;23.70;64.49;101274.56;5935938;29;20063;-67
2023/09/08 08:33:11;;;;;;;8.77;4.73;;;;;;;23.62;63.25;101285.66;5935317;28;20491;-66
2023/09/08 08:36:07;;;;;;;8.93;4.22;;;;;;;23.95;62.78;101288.97;5936000;29;20298;-68
2023/09/08 08:39:03;;;;;;;7.72;4.63;;;;;;;24.29;60.26;101274.16;5935861;29;20032;-67
2023/09/08 08:42:06;;;;;;;7.22;4.13;;;;;;;24.20;61.12;101280.91;5936389;29;20534;-67
2023/09/08 08:45:03;;;;;;;9.73;4.47;;;;;;;24.06;59.62;101273.88;5935222;29;20408;-67
2023/09/08 08:47:58;;;;;;;9.02;4.25;;;;;;;24.13;58.73;101282.84;5934413;29;20092;-67
2023/09/08 08:50:54;;;;;;;9.23;4.22;;;;;;;24.39;58.39;101290.75;5934291;29;20036;-69
2023/09/08 08:53:49;;;;;;;7.88;4.57;;;;;;;24.50;58.15;101298.16;5933691;29;20040;-67
2023/09/08 08:56:44;;;;;;;7.17;4.10;;;;;;;24.66;56.87;101292.16;5936247;29;20048;-69
2023/09/08 08:59:43;;;;;;;8.47;4.20;;;;;;;24.76;56.45;101275.34;5934297;29;20118;-68
2023/09/08 09:02:42;;;;;;;6.07;4.25;;;;;;;24.91;55.85;101280.44;5935637;29;20306;-69
2023/09/08 09:05:38;;;;;;;7.82;4.25;;;;;;;25.17;55.43;101267.38;5946522;29;20419;-67
2023/09/08 09:08:33;;;;;;;8.20;4.13;;;;;;;25.29;54.01;101275.59;5935155;29;20040;-68
2023/09/08 09:11:29;;;;;;;7.20;4.45;;;;;;;25.34;53.85;101276.56;5939861;29;20685;-68
2023/09/08 09:14:24;;;;;;;7.47;3.65;;;;;;;25.66;52.92;101271.75;5936606;29;20491;-67
2023/09/08 09:17:20;;;;;;;10.60;4.70;;;;;;;25.65;52.03;101266.56;5935174;29;20059;-68
2023/09/08 09:20:17;;;;;;;7.32;4.13;;;;;;;25.88;52.76;101281.03;5935146;29;20428;-68
2023/09/08 09:23:26;;;;;;;10.30;4.38;;;;;;;25.85;52.92;101284.22;5934239;29;20039;-68
2023/09/08 09:26:26;;;;;;;8.63;3.95;;;;;;;25.96;52.13;101260.84;5935084;29;20391;-68
2023/09/08 09:29:21;;;;;;;7.70;4.18;;;;;;;26.38;51.16;101267.06;5934904;29;20032;-68
2023/09/08 09:32:23;;;;;;;6.17;3.90;;;;;;;26.23;50.96;101255.81;5935047;29;20099;-69
2023/09/08 09:35:18;;;;;;;8.48;4.05;;;;;;;26.15;50.95;101276.03;5933843;28;20028;-68
2023/09/08 09:38:14;;;;;;;10.63;4.70;;;;;;;26.37;50.86;101263.50;5934958;29;20047;-69
2023/09/08 09:41:09;;;;;;;8.15;4.70;;;;;;;26.65;50.42;101270.13;5934128;29;20260;-68
2023/09/08 09:44:05;;;;;;;5.83;4.07;;;;;;;26.84;49.18;101258.06;5933719;29;20044;-68
2023/09/08 09:47:01;;;;;;;9.73;4.13;;;;;;;27.26;49.28;101261.41;5934709;29;21061;-68
2023/09/08 09:49:58;;;;;;;8.73;4.25;;;;;;;26.97;48.85;101265.97;5934481;29;20048;-68
2023/09/08 09:52:57;;;;;;;6.85;3.55;;;;;;;27.36;47.86;101250.69;5934044;29;20471;-68
2023/09/08 09:55:52;;;;;;;7.60;4.10;;;;;;;27.85;47.31;101252.72;5934284;29;20096;-69
2023/09/08 09:58:48;;;;;;;5.82;3.90;;;;;;;27.37;45.72;101242.25;5933142;29;20032;-69
2023/09/08 10:01:43;;;;;;;9.45;4.03;;;;;;;27.31;46.58;101236.97;5934507;29;20036;-67
2023/09/08 10:04:40;;;;;;;7.85;4.43;;;;;;;27.37;46.58;101244.19;5931529;29;20365;-69
2023/09/08 10:07:35;;;;;;;6.07;4.13;;;;;;;27.66;46.17;101234.94;5934305;29;20123;-68
2023/09/08 10:10:32;;;;;;;7.75;4.20;;;;;;;27.38;46.31;101240.38;5933887;29;20091;-68
2023/09/08 10:13:28;;;;;;;7.28;3.72;;;;;;;27.68;46.98;101249.13;5933450;29;20099;-69
2023/09/08 10:16:26;;;;;;;6.72;3.83;;;;;;;27.98;44.68;101259.75;5933786;29;20464;-68
2023/09/08 10:19:22;;;;;;;7.00;3.15;;;;;;;28.46;44.02;101240.06;5936696;29;20054;-69
2023/09/08 10:22:20;;;;;;;5.88;4.00;;;;;;;28.87;42.85;101245.03;5932793;29;20028;-68
2023/09/08 10:25:17;;;;;;;5.65;3.45;;;;;;;28.98;42.54;101240.53;5932797;29;20032;-68
2023/09/08 10:28:13;;;;;;;6.78;3.90;;;;;;;28.85;40.69;101236.28;5933958;29;20032;-69
2023/09/08 10:31:09;;;;;;;7.65;3.55;;;;;;;28.77;41.48;101214.88;5933729;29;20056;-68
2023/09/08 10:34:04;;;;;;;5.82;3.40;;;;;;;28.50;40.47;101211.19;5931572;29;20127;-69
2023/09/08 10:36:59;;;;;;;6.93;3.72;;;;;;;28.12;40.63;101210.13;5933713;29;20032;-69
2023/09/08 10:39:56;;;;;;;6.13;3.37;;;;;;;28.58;40.21;101202.56;5936187;29;20032;-69
2023/09/08 10:43:07;;;;;;;5.15;2.83;;;;;;;28.96;39.20;101213.47;5933458;29;20024;-69
2023/09/08 10:46:08;;;;;;;5.93;3.58;;;;;;;29.01;38.95;101204.50;5927494;29;20044;-68
2023/09/08 10:49:06;;;;;;;7.05;3.05;;;;;;;28.93;38.41;101194.84;5932354;29;20044;-67
2023/09/08 10:52:09;;;;;;;6.35;3.63;;;;;;;28.91;37.94;101216.16;5933218;29;20039;-67
2023/09/08 10:55:06;;;;;;;8.10;3.08;;;;;;;28.81;37.14;101218.72;5931372;29;20040;-68
2023/09/08 10:58:03;;;;;;;6.57;3.10;;;;;;;28.88;36.72;101219.38;5933335;29;20032;-67
2023/09/08 11:01:01;;;;;;;5.47;3.00;;;;;;;29.05;37.09;101201.03;5933144;29;20035;-67
2023/09/08 11:03:57;;;;;;;5.40;2.90;;;;;;;29.55;36.88;101191.69;5931577;29;20231;-68
2023/09/08 11:06:56;;;;;;;6.28;2.97;;;;;;;29.70;35.83;101208.25;5943784;29;20479;-68
2023/09/08 11:09:51;;;;;;;5.13;3.08;;;;;;;29.43;35.02;101200.09;5933240;29;20043;-68
2023/09/08 11:12:48;;;;;;;7.63;3.17;;;;;;;29.80;35.82;101209.19;5932725;29;20040;-67
2023/09/08 11:15:44;;;;;;;7.53;3.17;;;;;;;30.01;34.82;101199.22;5932289;29;20032;-68
2023/09/08 11:18:42;;;;;;;6.20;3.10;;;;;;;30.00;34.70;101203.06;5933101;29;20043;-67
2023/09/08 11:21:37;;;;;;;4.70;2.38;;;;;;;30.21;33.68;101209.50;5932806;29;20044;-68
2023/09/08 11:24:32;;;;;;;4.50;2.47;;;;;;;29.77;34.17;101197.91;5932079;29;20076;-68
2023/09/08 11:27:28;;;;;;;4.60;2.67;;;;;;;29.70;33.86;101197.31;5932192;29;20316;-68
2023/09/08 11:30:25;;;;;;;6.40;2.65;;;;;;;29.92;32.46;101193.41;5932642;29;20047;-68
2023/09/08 11:33:24;;;;;;;4.28;2.80;;;;;;;30.29;32.95;101200.78;5932042;29;20036;-67
2023/09/08 11:36:19;;;;;;;5.13;2.80;;;;;;;30.36;34.14;101184.97;5932774;29;20044;-67
2023/09/08 11:39:15;;;;;;;5.63;2.70;;;;;;;30.17;33.14;101190.03;5932783;29;20440;-67
2023/09/08 11:42:15;;;;;;;4.03;2.60;;;;;;;30.41;33.15;101179.56;5932695;29;20028;-68
2023/09/08 11:45:12;;;;;;;4.60;2.80;;;;;;;30.72;32.71;101177.75;5932140;29;20043;-68
2023/09/08 11:48:08;;;;;;;4.38;2.45;;;;;;;31.30;32.50;101182.91;5932842;28;20075;-67
2023/09/08 11:51:07;;;;;;;4.40;2.73;;;;;;;30.33;32.94;101180.03;5932319;29;20115;-68
2023/09/08 11:54:03;;;;;;;4.40;2.70;;;;;;;30.14;33.42;101165.13;5932146;29;20039;-67
2023/09/08 11:57:00;;;;;;;8.10;3.00;;;;;;;30.50;33.64;101183.41;5932419;29;20032;-68
2023/09/08 11:59:56;;;;;;;5.63;3.17;;;;;;;30.53;32.75;101174.66;5932700;29;20043;-67
2023/09/08 12:02:51;;;;;;;7.07;3.10;;;;;;;30.67;32.64;101165.72;5931311;29;20048;-69
2023/09/08 12:05:51;;;;;;;6.82;3.10;;;;;;;30.57;33.12;101159.38;5947271;29;20050;-68
2023/09/08 12:08:47;;;;;;;4.95;2.72;;;;;;;30.88;33.56;101157.53;5945169;29;20044;-68
2023/09/08 12:11:42;;;;;;;4.63;2.70;;;;;;;31.19;33.07;101159.31;5936619;29;20036;-69
2023/09/08 12:14:42;;;;;;;9.30;3.40;;;;;;;31.03;34.70;101163.13;5935937;29;20416;-67
2023/09/08 12:17:55;;;;;;;;;;;;;;;30.96;34.61;101163.38;5936758;29;20480;-69
2023/09/08 12:21:04;;;;;;;4.38;2.92;;;;;;;31.08;32.19;101163.13;5936733;29;19911;-69
2023/09/08 12:23:59;;;;;;;6.50;3.22;;;;;;;30.56;31.79;101165.94;5935527;29;20036;-68
2023/09/08 12:26:55;;;;;;;4.63;2.83;;;;;;;30.48;32.60;101160.97;5936402;29;20036;-68
2023/09/08 12:29:55;;;;;;;6.60;3.60;;;;;;;30.97;35.22;101155.97;5934465;29;20040;-68
2023/09/08 12:32:50;;;;;;;5.32;3.03;;;;;;;30.56;33.99;101144.84;5935333;29;20042;-68
2023/09/08 12:35:48;;;;;;;6.88;3.30;;;;;;;30.73;33.31;101165.72;5934665;29;20032;-69
2023/09/08 12:38:52;;;;;;;5.80;3.13;;;;;;;30.40;34.35;101153.25;5935637;29;20032;-68
2023/09/08 12:41:48;;;;;;;5.35;2.90;;;;;;;30.67;35.77;101153.94;5936176;29;20034;-69
2023/09/08 12:44:43;;;;;;;9.63;3.50;;;;;;;30.98;35.20;101138.44;5935121;29;20032;-67
2023/09/08 12:47:38;;;;;;;6.33;3.17;;;;;;;31.12;34.22;101139.53;5935969;29;20020;-67
2023/09/08 12:50:34;;;;;;;5.33;3.27;;;;;;;31.01;34.54;101126.94;5935686;29;20280;-68
2023/09/08 12:53:35;;;;;;;4.93;2.60;;;;;;;30.95;34.34;101141.72;5934914;29;20296;-68
2023/09/08 12:56:30;;;;;;;5.93;2.90;;;;;;;31.38;33.23;101133.03;5935811;29;20028;-69
2023/09/08 12:59:25;;;;;;;6.37;3.27;;;;;;;31.35;32.02;101121.75;5935538;29;20039;-67
2023/09/08 13:02:21;;;;;;;5.17;3.00;;;;;;;31.50;33.01;101122.63;5935780;29;20084;-68
2023/09/08 13:05:17;;;;;;;5.47;3.40;;;;;;;31.33;33.58;101130.28;5944888;29;20288;-68
2023/09/08 13:08:15;;;;;;;7.88;2.95;;;;;;;30.97;33.77;101120.34;5934979;29;20060;-68
2023/09/08 13:11:10;;;;;;;4.20;3.15;;;;;;;30.56;34.05;101133.91;5936292;29;20436;-68
2023/09/08 13:14:05;;;;;;;5.13;3.30;;;;;;;30.97;34.45;101125.81;5935362;29;20020;-69
2023/09/08 13:17:01;;;;;;;6.53;3.17;;;;;;;30.58;34.43;101112.53;5934402;29;20024;-68
2023/09/08 13:19:56;;;;;;;12.80;3.38;;;;;;;30.77;33.85;101112.88;5935013;29;20051;-69
2023/09/08 13:22:51;;;;;;;4.83;2.73;;;;;;;30.81;34.44;101099.47;5944471;29;20020;-69
2023/09/08 13:25:47;;;;;;;6.73;3.47;;;;;;;31.07;33.69;101093.78;5934484;28;20028;-69
2023/09/08 13:28:43;;;;;;;4.33;3.10;;;;;;;31.05;34.09;101100.63;5934869;29;20467;-69
2023/09/08 13:31:38;;;;;;;5.72;3.13;;;;;;;31.18;34.36;101108.31;5935229;29;20099;-68